Morning Sun, Ohio
Current Conditions -  °F | °C
As of 10:35 PM on Friday 28 Nov 2014 (Local Time) from KMWO Reporting Station
Clear Clear  
Wind Chill: 30°   Ceiling: Unl
Heat Index: 34°   Visibility: 10mi
Dew Point: 16°   Wind: 5mph
Humidity: 46%   Direction: 170°S
Pressure: 30.13"   Gusts: NA
Location:  39.6252°N, 84.6611°W
Report Text: KMWO 290335Z AUTO 17004KT 10SM CLR 01/M09 A3013 RMK AO2 T00131091
Loading
Personal Weather Stations






























Interactive Weather Map New forecast layout! Learn more

10-Day Weather Forecast

Advertisements
Track Severe Weather on mobile